createdAt,value
2023-01-25T00:00:33.036Z,102250.47
2023-01-25T00:02:59.921Z,102242.38
2023-01-25T00:05:26.749Z,102240.69
2023-01-25T00:07:53.759Z,102241.13
2023-01-25T00:10:23.694Z,102236.53
2023-01-25T00:12:50.578Z,102241.78
2023-01-25T00:15:17.520Z,102236.75
2023-01-25T00:17:44.657Z,102234.88
2023-01-25T00:20:11.711Z,102228.84
2023-01-25T00:22:38.655Z,102220.44
2023-01-25T00:25:06.341Z,102222.91
2023-01-25T00:27:33.423Z,102219.88
2023-01-25T00:30:00.426Z,102211.63
2023-01-25T00:32:54.308Z,102209.38
2023-01-25T00:35:21.757Z,102208.03
2023-01-25T00:37:52.580Z,102211.69
2023-01-25T00:40:19.650Z,102212.31
2023-01-25T00:42:46.558Z,102204.78
2023-01-25T00:45:13.816Z,102208.72
2023-01-25T00:47:40.740Z,102209.13
2023-01-25T00:50:09.287Z,102209.31
2023-01-25T00:52:39.825Z,102217.66
2023-01-25T00:55:07.736Z,102209.38
2023-01-25T00:57:35.074Z,102208.09
2023-01-25T01:00:05.117Z,102206.19
2023-01-25T01:02:32.340Z,102200.88
2023-01-25T01:05:00.069Z,102207.59
2023-01-25T01:07:27.960Z,102203.22
2023-01-25T01:09:59.237Z,102203.59
2023-01-25T01:12:28.957Z,102205.28
2023-01-25T01:14:56.796Z,102193.56
2023-01-25T01:17:23.767Z,102194.59
2023-01-25T01:19:50.792Z,102198.72
2023-01-25T01:22:18.544Z,102194.19
2023-01-25T01:24:48.466Z,102187.94
2023-01-25T01:27:15.473Z,102191.69
2023-01-25T01:29:42.508Z,102187.34
2023-01-25T01:32:09.583Z,102189.66
2023-01-25T01:34:36.889Z,102184.84
2023-01-25T01:37:03.927Z,102190.06
2023-01-25T01:39:30.959Z,102187.81
2023-01-25T01:41:57.904Z,102186.56
2023-01-25T01:44:45.014Z,102174.84
2023-01-25T01:47:19.173Z,102175.00
2023-01-25T01:49:54.466Z,102175.06
2023-01-25T01:52:28.244Z,102174.41
2023-01-25T01:55:05.052Z,102164.84
2023-01-25T01:57:43.623Z,102165.22
2023-01-25T02:00:19.231Z,102165.63
2023-01-25T02:02:47.276Z,102166.25
2023-01-25T02:05:53.436Z,102162.78
2023-01-25T02:08:20.991Z,102166.28
2023-01-25T02:10:49.620Z,102164.16
2023-01-25T02:13:18.694Z,102169.19
2023-01-25T02:15:49.586Z,102155.47
2023-01-25T02:18:18.120Z,102154.19
2023-01-25T02:20:47.179Z,102158.81
2023-01-25T02:23:35.859Z,102161.31
2023-01-25T02:26:07.637Z,102159.03
2023-01-25T02:28:42.204Z,102152.78
2023-01-25T02:31:09.231Z,102142.56
2023-01-25T02:33:36.861Z,102154.66
2023-01-25T02:36:07.486Z,102142.13
2023-01-25T02:38:42.589Z,102139.41
2023-01-25T02:41:25.759Z,102137.13
2023-01-25T02:43:53.162Z,102144.69
2023-01-25T02:46:31.915Z,102135.72
2023-01-25T02:49:00.992Z,102137.97
2023-01-25T02:51:33.361Z,102144.84
2023-01-25T02:54:01.172Z,102144.44
2023-01-25T02:56:30.223Z,102145.09
2023-01-25T02:58:57.533Z,102146.59
2023-01-25T03:01:24.867Z,102146.19
2023-01-25T03:04:07.516Z,102148.31
2023-01-25T03:06:42.544Z,102150.78
2023-01-25T03:09:11.345Z,102149.34
2023-01-25T03:11:42.167Z,102148.50
2023-01-25T03:28:25.614Z,102155.69
2023-01-25T03:30:55.976Z,102148.81
2023-01-25T03:33:22.880Z,102157.75
2023-01-25T03:35:54.533Z,102147.97
2023-01-25T03:38:22.151Z,102149.41
2023-01-25T03:40:49.443Z,102149.41
2023-01-25T03:43:17.072Z,102141.88
2023-01-25T03:45:56.673Z,102142.09
2023-01-25T03:48:24.814Z,102142.53
2023-01-25T03:50:58.162Z,102142.09
2023-01-25T03:53:29.759Z,102136.88
2023-01-25T03:56:10.202Z,102141.06
2023-01-25T03:58:39.417Z,102134.59
2023-01-25T04:01:08.918Z,102136.03
2023-01-25T04:03:36.262Z,102137.69
2023-01-25T04:06:05.858Z,102128.06
2023-01-25T04:08:33.584Z,102130.38
2023-01-25T04:11:06.232Z,102137.66
2023-01-25T04:13:37.046Z,102141.25
2023-01-25T04:16:07.838Z,102138.28
2023-01-25T04:18:57.866Z,102139.97
2023-01-25T04:21:25.559Z,102142.31
2023-01-25T04:23:52.933Z,102153.16
2023-01-25T04:26:20.217Z,102144.19
2023-01-25T04:28:53.377Z,102147.31
2023-01-25T04:31:20.377Z,102137.50
2023-01-25T04:33:50.524Z,102132.91
2023-01-25T04:36:19.282Z,102133.72
2023-01-25T04:38:46.481Z,102132.50
2023-01-25T04:41:13.543Z,102131.44
2023-01-25T04:43:42.024Z,102135.19
2023-01-25T04:46:10.727Z,102136.44
2023-01-25T04:48:37.855Z,102122.84
2023-01-25T04:51:06.898Z,102122.44
2023-01-25T04:53:35.025Z,102120.34
2023-01-25T04:56:05.231Z,102136.19
2023-01-25T04:58:37.172Z,102132.44
2023-01-25T05:01:04.946Z,102123.03
2023-01-25T05:03:32.576Z,102137.03
2023-01-25T05:05:59.775Z,102128.69
2023-01-25T05:08:26.961Z,102131.59
2023-01-25T05:11:00.275Z,102133.47
2023-01-25T05:13:38.307Z,102130.75
2023-01-25T05:16:23.407Z,102132.84
2023-01-25T05:18:50.497Z,102127.38
2023-01-25T05:21:39.826Z,102129.81
2023-01-25T05:24:09.117Z,102123.81
2023-01-25T05:26:55.060Z,102123.81
2023-01-25T05:29:22.272Z,102132.59
2023-01-25T05:31:59.610Z,102132.41
2023-01-25T05:34:27.596Z,102123.22
2023-01-25T05:36:54.733Z,102118.00
2023-01-25T05:39:22.311Z,102121.72
2023-01-25T05:41:49.779Z,102113.41
2023-01-25T05:44:16.720Z,102113.59
2023-01-25T05:46:46.908Z,102113.75
2023-01-25T05:49:17.208Z,102113.56
2023-01-25T05:51:45.146Z,102118.16
2023-01-25T05:54:17.704Z,102113.16
2023-01-25T05:56:57.020Z,102112.69
2023-01-25T05:59:23.850Z,102108.56
2023-01-25T06:01:52.681Z,102104.38
2023-01-25T06:04:20.071Z,102108.97
2023-01-25T06:06:47.062Z,102113.50
2023-01-25T06:09:14.703Z,102114.34
2023-01-25T06:11:45.461Z,102106.19
2023-01-25T06:14:13.492Z,102102.44
2023-01-25T06:16:41.161Z,102099.28
2023-01-25T06:19:26.556Z,102104.88
2023-01-25T06:22:09.316Z,102102.00
2023-01-25T06:24:36.226Z,102103.66
2023-01-25T06:27:03.190Z,102102.81
2023-01-25T06:29:29.982Z,102098.44
2023-01-25T06:31:57.023Z,102093.84
2023-01-25T06:34:24.857Z,102085.25
2023-01-25T06:36:52.898Z,102088.34
2023-01-25T06:39:19.757Z,102089.19
2023-01-25T06:41:47.210Z,102089.81
2023-01-25T06:44:14.072Z,102082.47
2023-01-25T06:46:41.183Z,102079.94
2023-01-25T06:49:08.115Z,102073.34
2023-01-25T06:51:35.259Z,102084.84
2023-01-25T06:54:04.409Z,102079.22
2023-01-25T06:56:32.815Z,102081.69
2023-01-25T06:58:59.689Z,102075.81
2023-01-25T07:01:30.742Z,102064.75
2023-01-25T07:03:59.308Z,102068.69
2023-01-25T07:06:32.440Z,102059.84
2023-01-25T07:09:07.159Z,102075.94
2023-01-25T07:11:34.632Z,102061.06
2023-01-25T07:14:01.738Z,102041.19
2023-01-25T07:16:28.669Z,102070.44
2023-01-25T07:18:57.818Z,102062.84
2023-01-25T07:21:24.752Z,102068.03
2023-01-25T07:23:52.797Z,102057.56
2023-01-25T07:26:25.496Z,102055.81
2023-01-25T07:28:53.223Z,102065.00
2023-01-25T07:31:20.974Z,102046.97
2023-01-25T07:33:49.757Z,102070.88
2023-01-25T07:36:16.721Z,102060.13
2023-01-25T07:38:43.826Z,102060.31
2023-01-25T07:41:10.985Z,102054.75
2023-01-25T07:43:37.891Z,102055.50
2023-01-25T07:46:08.220Z,102056.88
2023-01-25T07:48:35.143Z,102064.19
2023-01-25T07:51:12.744Z,102066.28
2023-01-25T07:53:43.948Z,102078.47
2023-01-25T07:56:12.285Z,102074.16
2023-01-25T07:58:39.776Z,102073.31
2023-01-25T08:01:14.704Z,102068.25
2023-01-25T08:03:41.982Z,102076.38
2023-01-25T08:06:10.036Z,102075.69
2023-01-25T08:08:45.992Z,102081.31
2023-01-25T08:11:13.449Z,102085.06
2023-01-25T08:13:41.389Z,102093.09
2023-01-25T08:16:08.927Z,102088.09
2023-01-25T08:18:36.734Z,102097.16
2023-01-25T08:21:04.033Z,102105.31
2023-01-25T08:23:30.917Z,102100.09
2023-01-25T08:26:02.797Z,102101.56
2023-01-25T08:28:29.684Z,102105.09
2023-01-25T08:31:05.795Z,102114.75
2023-01-25T08:33:32.680Z,102109.56
2023-01-25T08:35:59.645Z,102114.91
2023-01-25T08:38:26.590Z,102102.16
2023-01-25T08:40:53.489Z,102107.97
2023-01-25T08:43:20.360Z,102112.34
2023-01-25T08:45:55.767Z,102098.38
2023-01-25T08:48:22.657Z,102104.03
2023-01-25T08:50:49.561Z,102096.34
2023-01-25T08:53:16.350Z,102095.50
2023-01-25T08:55:43.309Z,102099.34
2023-01-25T08:58:16.236Z,102089.91
2023-01-25T09:00:43.732Z,102074.16
2023-01-25T09:03:11.933Z,102082.88
2023-01-25T09:05:40.050Z,102083.38
2023-01-25T09:08:09.904Z,102068.03
2023-01-25T09:10:37.140Z,102069.16
2023-01-25T09:13:04.277Z,102075.44
2023-01-25T09:15:31.377Z,102071.91
2023-01-25T09:17:58.248Z,102071.75
2023-01-25T09:20:25.143Z,102063.75
2023-01-25T09:22:52.100Z,102068.56
2023-01-25T09:25:19.071Z,102059.44
2023-01-25T09:27:50.579Z,102061.78
2023-01-25T09:30:19.009Z,102064.19
2023-01-25T09:32:51.277Z,102068.97
2023-01-25T09:35:18.314Z,102063.38
2023-01-25T09:37:45.177Z,102055.78
2023-01-25T09:40:23.862Z,102048.38
2023-01-25T09:43:36.805Z,102043.28
2023-01-25T09:46:17.589Z,102035.09
2023-01-25T09:49:25.918Z,102037.81
2023-01-25T09:52:07.214Z,102024.53
2023-01-25T09:54:47.110Z,102035.81
2023-01-25T09:57:17.051Z,102025.06
2023-01-25T09:59:47.044Z,102012.16
2023-01-25T10:02:37.997Z,102015.00
2023-01-25T10:05:11.854Z,102004.91
2023-01-25T10:07:54.113Z,102009.09
2023-01-25T10:10:35.985Z,101996.75
2023-01-25T10:13:03.284Z,102009.19
2023-01-25T10:15:38.529Z,101998.66
2023-01-25T10:18:10.111Z,101993.91
2023-01-25T10:20:56.293Z,102001.75
2023-01-25T10:23:44.226Z,102004.47
2023-01-25T10:26:32.522Z,101995.69
2023-01-25T10:29:27.944Z,101991.19
2023-01-25T10:32:02.568Z,101998.66
2023-01-25T10:34:54.337Z,101995.09
2023-01-25T10:37:26.937Z,101995.47
2023-01-25T10:39:57.140Z,101973.88
2023-01-25T10:42:27.720Z,101979.94
2023-01-25T10:44:54.577Z,101969.34
2023-01-25T10:47:29.488Z,101984.28
2023-01-25T10:49:58.928Z,101971.38
2023-01-25T10:52:31.983Z,101969.94
2023-01-25T10:55:10.988Z,101974.81
2023-01-25T10:57:43.025Z,101972.44
2023-01-25T11:00:23.902Z,101970.06
2023-01-25T11:02:50.889Z,101959.06
2023-01-25T11:05:36.988Z,101946.00
2023-01-25T11:08:35.459Z,101940.19
2023-01-25T11:11:22.493Z,101943.97
2023-01-25T11:13:49.575Z,101937.81
2023-01-25T11:16:30.728Z,101936.72
2023-01-25T11:18:58.894Z,101936.84
2023-01-25T11:21:30.973Z,101926.28
2023-01-25T11:24:07.002Z,101927.94
2023-01-25T11:26:38.060Z,101924.97
2023-01-25T11:29:19.806Z,101929.84
2023-01-25T11:31:49.987Z,101917.91
2023-01-25T11:34:19.510Z,101913.66
2023-01-25T11:37:14.310Z,101911.50
2023-01-25T11:40:04.649Z,101909.34
2023-01-25T11:42:31.540Z,101916.25
2023-01-25T11:45:42.138Z,101901.56
2023-01-25T11:48:31.189Z,101910.78
2023-01-25T11:51:14.666Z,101900.69
2023-01-25T11:54:13.845Z,101901.59
2023-01-25T11:56:43.731Z,101905.91
2023-01-25T11:59:19.691Z,101900.22
2023-01-25T12:02:14.343Z,101908.63
2023-01-25T12:04:41.203Z,101899.88
2023-01-25T12:07:29.789Z,101894.88
2023-01-25T12:09:59.713Z,101887.56
2023-01-25T12:12:47.785Z,101881.19
2023-01-25T12:15:36.115Z,101885.78
2023-01-25T12:18:03.008Z,101885.09
2023-01-25T12:20:42.094Z,101878.09
2023-01-25T12:23:14.909Z,101861.25
2023-01-25T12:26:05.256Z,101870.50
2023-01-25T12:28:41.195Z,101877.00
2023-01-25T12:31:13.291Z,101880.19
2023-01-25T12:33:45.532Z,101877.47
2023-01-25T12:36:22.935Z,101880.16
2023-01-25T12:38:52.499Z,101882.56
2023-01-25T12:41:28.479Z,101879.88
2023-01-25T12:44:15.632Z,101879.66
2023-01-25T12:46:48.588Z,101881.41
2023-01-25T12:49:39.966Z,101873.84
2023-01-25T12:52:32.352Z,101873.09
2023-01-25T12:55:12.503Z,101890.69
2023-01-25T12:57:54.117Z,101886.66
2023-01-25T13:00:28.529Z,101881.34
2023-01-25T13:03:01.628Z,101884.78
2023-01-25T13:05:28.399Z,101892.38
2023-01-25T13:08:32.966Z,101887.66
2023-01-25T13:11:18.415Z,101882.78
2023-01-25T13:13:45.368Z,101883.53
2023-01-25T13:16:30.379Z,101883.06
2023-01-25T13:18:58.537Z,101882.84
2023-01-25T13:21:37.378Z,101885.91
2023-01-25T13:24:19.274Z,101882.09
2023-01-25T13:26:57.308Z,101884.03
2023-01-25T13:29:36.544Z,101880.22
2023-01-25T13:32:05.771Z,101876.78
2023-01-25T13:34:39.420Z,101884.22
2023-01-25T13:37:19.931Z,101878.44
2023-01-25T13:39:46.775Z,101880.66
2023-01-25T13:42:13.554Z,101886.19
2023-01-25T13:45:02.828Z,101865.00
2023-01-25T13:47:37.975Z,101868.19
2023-01-25T13:50:22.820Z,101864.31
2023-01-25T13:53:01.947Z,101864.06
2023-01-25T13:55:30.244Z,101863.00
2023-01-25T13:58:31.163Z,101868.63
2023-01-25T14:01:06.489Z,101863.41
2023-01-25T14:03:40.838Z,101866.59
2023-01-25T14:06:16.477Z,101869.97
2023-01-25T14:08:45.372Z,101869.97
2023-01-25T14:11:21.815Z,101877.09
2023-01-25T14:14:03.260Z,101871.28
2023-01-25T14:16:32.075Z,101869.00
2023-01-25T14:19:22.672Z,101867.72
2023-01-25T14:21:49.573Z,101867.94
2023-01-25T14:24:19.700Z,101870.81
2023-01-25T14:26:47.658Z,101869.13
2023-01-25T14:29:35.407Z,101870.47
2023-01-25T14:32:03.403Z,101856.75
2023-01-25T14:34:30.628Z,101855.47
2023-01-25T14:37:16.287Z,101850.75
2023-01-25T14:39:43.239Z,101857.97
2023-01-25T14:42:11.094Z,101857.47
2023-01-25T14:44:38.270Z,101848.22
2023-01-25T14:47:31.234Z,101849.06
2023-01-25T14:50:28.936Z,101851.91
2023-01-25T14:52:57.295Z,101857.84
2023-01-25T14:55:24.279Z,101866.13
2023-01-25T14:57:51.375Z,101860.47
2023-01-25T15:00:24.708Z,101860.13
2023-01-25T15:02:55.590Z,101849.44
2023-01-25T15:05:24.748Z,101853.78
2023-01-25T15:08:13.667Z,101855.78
2023-01-25T15:10:55.106Z,101832.75
2023-01-25T15:13:23.342Z,101837.09
2023-01-25T15:16:01.904Z,101852.16
2023-01-25T15:29:52.554Z,101834.13
2023-01-25T15:32:21.445Z,101835.22
2023-01-25T15:34:48.623Z,101834.84
2023-01-25T15:37:15.493Z,101834.97
2023-01-25T15:39:42.373Z,101826.13
2023-01-25T15:42:09.418Z,101832.16
2023-01-25T15:44:36.330Z,101824.56
2023-01-25T15:47:03.209Z,101827.88
2023-01-25T15:49:31.766Z,101823.28
2023-01-25T15:51:58.843Z,101828.31
2023-01-25T15:54:26.477Z,101830.81
2023-01-25T15:56:57.633Z,101833.91
2023-01-25T15:59:25.175Z,101837.69
2023-01-25T16:01:52.261Z,101847.19
2023-01-25T16:04:19.105Z,101843.41
2023-01-25T16:06:45.977Z,101832.69
2023-01-25T16:09:25.120Z,101826.25
2023-01-25T16:11:54.627Z,101828.63
2023-01-25T16:14:23.829Z,101827.94
2023-01-25T16:16:52.993Z,101831.81
2023-01-25T16:19:22.181Z,101836.25
2023-01-25T16:21:50.019Z,101828.25
2023-01-25T16:24:18.241Z,101839.03
2023-01-25T16:26:50.688Z,101830.72
2023-01-25T16:29:17.562Z,101831.34
2023-01-25T16:31:44.579Z,101833.22
2023-01-25T16:34:11.465Z,101828.19
2023-01-25T16:36:39.649Z,101836.22
2023-01-25T16:39:16.013Z,101825.91
2023-01-25T16:41:42.793Z,101828.88
2023-01-25T16:44:09.711Z,101834.19
2023-01-25T16:46:36.705Z,101827.47
2023-01-25T16:49:06.962Z,101838.47
2023-01-25T16:51:34.065Z,101827.59
2023-01-25T16:54:00.929Z,101830.31
2023-01-25T16:56:33.076Z,101828.88
2023-01-25T16:59:05.245Z,101822.16
2023-01-25T17:01:32.804Z,101809.63
2023-01-25T17:03:59.820Z,101816.88
2023-01-25T17:06:29.248Z,101804.09
2023-01-25T17:09:00.316Z,101818.16
2023-01-25T17:11:28.188Z,101803.44
2023-01-25T17:13:57.756Z,101802.81
2023-01-25T17:16:26.677Z,101785.19
2023-01-25T17:19:02.617Z,101786.13
2023-01-25T17:21:29.907Z,101791.34
2023-01-25T17:23:58.423Z,101793.25
2023-01-25T17:26:28.165Z,101790.50
2023-01-25T17:28:56.594Z,101782.78
2023-01-25T17:31:26.913Z,101781.53
2023-01-25T17:33:54.801Z,101779.28
2023-01-25T17:36:21.893Z,101778.69
2023-01-25T17:38:49.373Z,101764.84
2023-01-25T17:41:17.217Z,101781.03
2023-01-25T17:43:44.205Z,101778.09
2023-01-25T17:46:11.848Z,101775.13
2023-01-25T17:48:39.164Z,101782.22
2023-01-25T17:51:06.068Z,101766.25
2023-01-25T17:53:33.084Z,101771.34
2023-01-25T17:56:05.571Z,101783.38
2023-01-25T17:58:35.551Z,101761.38
2023-01-25T18:01:13.834Z,101770.84
2023-01-25T18:03:42.951Z,101759.59
2023-01-25T18:06:11.260Z,101758.75
2023-01-25T18:08:46.292Z,101756.88
2023-01-25T18:11:15.998Z,101752.00
2023-01-25T18:13:45.274Z,101747.75
2023-01-25T18:16:14.413Z,101729.91
2023-01-25T18:18:42.840Z,101731.84
2023-01-25T18:21:16.107Z,101731.09
2023-01-25T18:23:47.315Z,101730.66
2023-01-25T18:26:20.312Z,101726.28
2023-01-25T18:28:47.690Z,101723.91
2023-01-25T18:31:18.777Z,101729.56
2023-01-25T18:33:45.747Z,101726.84
2023-01-25T18:36:17.400Z,101708.28
2023-01-25T18:38:45.043Z,101706.88
2023-01-25T18:41:12.684Z,101708.28
2023-01-25T18:43:39.604Z,101715.25
2023-01-25T18:46:06.916Z,101708.63
2023-01-25T18:48:33.915Z,101707.78
2023-01-25T18:51:11.417Z,101718.53
2023-01-25T18:53:40.175Z,101718.88
2023-01-25T18:56:12.573Z,101718.31
2023-01-25T18:58:40.168Z,101718.41
2023-01-25T19:01:11.416Z,101709.16
2023-01-25T19:03:38.573Z,101707.28
2023-01-25T19:06:06.370Z,101688.50
2023-01-25T19:08:35.615Z,101695.81
2023-01-25T19:11:06.155Z,101703.16
2023-01-25T19:13:34.501Z,101689.56
2023-01-25T19:16:07.049Z,101703.16
2023-01-25T19:18:41.098Z,101698.78
2023-01-25T19:21:09.929Z,101702.09
2023-01-25T19:23:39.317Z,101693.09
2023-01-25T19:26:10.766Z,101689.69
2023-01-25T19:28:38.966Z,101697.25
2023-01-25T19:31:24.392Z,101681.41
2023-01-25T19:34:03.284Z,101696.75
2023-01-25T19:36:32.728Z,101686.69
2023-01-25T19:39:00.030Z,101679.59
2023-01-25T19:41:28.907Z,101668.50
2023-01-25T19:43:57.953Z,101681.47
2023-01-25T19:46:27.714Z,101675.09
2023-01-25T19:48:55.057Z,101682.66
2023-01-25T19:51:23.025Z,101698.38
2023-01-25T19:54:03.415Z,101690.44
2023-01-25T19:56:37.562Z,101673.56
2023-01-25T19:59:05.499Z,101692.34
2023-01-25T20:01:35.381Z,101677.69
2023-01-25T20:04:04.239Z,101691.50
2023-01-25T20:06:31.081Z,101667.66
2023-01-25T20:08:57.938Z,101679.47
2023-01-25T20:11:27.772Z,101682.19
2023-01-25T20:13:57.816Z,101675.09
2023-01-25T20:16:25.869Z,101660.06
2023-01-25T20:18:55.087Z,101661.50
2023-01-25T20:21:23.797Z,101651.47
2023-01-25T20:23:55.092Z,101664.81
2023-01-25T20:26:27.935Z,101667.31
2023-01-25T20:28:56.679Z,101683.00
2023-01-25T20:31:28.206Z,101674.84
2023-01-25T20:33:57.961Z,101663.63
2023-01-25T20:36:27.973Z,101677.00
2023-01-25T20:38:55.415Z,101674.50
2023-01-25T20:41:22.940Z,101671.56
2023-01-25T20:44:02.124Z,101673.91
2023-01-25T20:46:29.820Z,101666.69
2023-01-25T20:48:56.691Z,101658.78
2023-01-25T20:51:24.175Z,101639.75
2023-01-25T20:53:51.795Z,101657.09
2023-01-25T20:56:19.429Z,101610.41
2023-01-25T20:58:50.482Z,101642.19
2023-01-25T21:01:19.299Z,101636.53
2023-01-25T21:03:46.753Z,101619.84
2023-01-25T21:06:14.485Z,101638.28
2023-01-25T21:08:41.742Z,101619.25
2023-01-25T21:11:09.039Z,101634.72
2023-01-25T21:13:36.029Z,101640.53
2023-01-25T21:16:04.754Z,101639.69
2023-01-25T21:18:42.602Z,101639.47
2023-01-25T21:21:11.621Z,101640.88
2023-01-25T21:23:40.991Z,101640.31
2023-01-25T21:26:10.401Z,101623.75
2023-01-25T21:28:37.326Z,101627.44
2023-01-25T21:31:12.607Z,101629.94
2023-01-25T21:33:40.545Z,101615.84
2023-01-25T21:36:08.870Z,101608.41
2023-01-25T21:38:36.191Z,101611.47
2023-01-25T21:41:05.243Z,101618.44
2023-01-25T21:43:55.606Z,101607.22
2023-01-25T21:46:27.011Z,101604.84
2023-01-25T21:49:17.737Z,101594.66
2023-01-25T21:51:49.535Z,101597.84
2023-01-25T21:54:19.126Z,101579.75
2023-01-25T21:56:47.374Z,101577.28
2023-01-25T21:59:14.468Z,101577.88
2023-01-25T22:01:43.160Z,101567.59
2023-01-25T22:04:11.567Z,101575.41
2023-01-25T22:06:39.129Z,101561.56
2023-01-25T22:09:07.187Z,101562.88
2023-01-25T22:11:34.456Z,101567.75
2023-01-25T22:14:01.634Z,101549.06
2023-01-25T22:16:31.883Z,101555.66
2023-01-25T22:19:01.699Z,101533.22
2023-01-25T22:21:32.080Z,101548.34
2023-01-25T22:24:00.923Z,101553.56
2023-01-25T22:26:39.402Z,101536.06
2023-01-25T22:29:06.318Z,101530.75
2023-01-25T22:31:33.310Z,101520.66
2023-01-25T22:34:00.511Z,101523.66
2023-01-25T22:36:29.316Z,101524.13
2023-01-25T22:38:57.055Z,101521.00
2023-01-25T22:41:26.412Z,101519.00
2023-01-25T22:43:54.076Z,101512.50
2023-01-25T22:46:23.914Z,101508.50
2023-01-25T22:48:50.925Z,101512.06
2023-01-25T22:51:20.089Z,101499.75
2023-01-25T22:53:47.226Z,101511.47
2023-01-25T22:56:17.173Z,101507.44
2023-01-25T22:58:45.498Z,101504.50
2023-01-25T23:01:15.251Z,101495.88
2023-01-25T23:03:42.279Z,101505.09
2023-01-25T23:06:14.174Z,101508.19
2023-01-25T23:08:41.765Z,101503.09
2023-01-25T23:11:19.951Z,101505.94
2023-01-25T23:14:06.299Z,101506.03
2023-01-25T23:16:34.816Z,101500.16
2023-01-25T23:19:02.203Z,101497.19
2023-01-25T23:21:30.045Z,101502.53
2023-01-25T23:24:00.829Z,101507.00
2023-01-25T23:26:29.851Z,101508.44
2023-01-25T23:28:57.920Z,101504.75
2023-01-25T23:31:26.263Z,101495.53
2023-01-25T23:33:55.419Z,101505.59
2023-01-25T23:36:24.761Z,101511.38
2023-01-25T23:38:52.105Z,101521.31
2023-01-25T23:41:20.692Z,101510.78
2023-01-25T23:43:48.472Z,101530.31
2023-01-25T23:46:16.326Z,101518.13
2023-01-25T23:48:44.227Z,101533.59
2023-01-25T23:51:14.785Z,101529.00
2023-01-25T23:53:42.775Z,101533.00
2023-01-25T23:56:15.827Z,101526.97
2023-01-25T23:58:42.991Z,101524.03
